KCVN/CVN METAR and TAF weather

Enter ICAO airport designator
Station Type Date Time Source
KCVN METAR 2021/08/02 02:44 UTC NOAA

KCVN 020244Z AUTO 05013KT 10SM OVC015 19/16 A3032 RMK AO2


Station Type Date Time Source
KCVN Decoded METAR 2021/08/02 02:44 UTC NOAA

Clovis, Clovis Municipal Airport, NM, United States (KCVN) 34-26N 103-05W
Aug 01, 2021 - 10:44 PM EDT / 2021.08.02 0244 UTC
Wind: from the NE (050 degrees) at 15 MPH (13 KT):0
Visibility: 10 mile(s):0
Sky conditions: overcast
Temperature: 66 F (19 C)
Dew Point: 60 F (16 C)
Relative Humidity: 82%
Pressure (altimeter): 30.32 in. Hg (1026 hPa)
ob: KCVN 020244Z AUTO 05013KT 10SM OVC015 19/16 A3032 RMK AO2
cycle: 2

Station Type Date Time Source
KCVN TAF UTC NOAA

Error!

Example: see airport list